This is the latest recevied weather packets stored in our database for station/object AB4KN. If no packets are shown the sender has not sent any weather packets the latest 10 day(s).
| Time | Temp. | Humidity | Pressure | Rain* | Wind** | Luminosity | Snow |
|---|---|---|---|---|---|---|---|
| 1777041285 | 21.67° C | 63% | 1020.1 hPa | 0 mm | - | 44 W/m² | - |
| 1777040982 | 21.67° C | 65% | 1020.1 hPa | 0 mm | - | 43 W/m² | - |
| 1777040678 | 21.67° C | 66% | 1020.1 hPa | 0 mm | - | 42 W/m² | - |
| 1777040372 | 21.67° C | 65% | 1020 hPa | 0 mm | - | 41 W/m² | - |
| 1777040067 | 21.11° C | 66% | 1020.1 hPa | 0 mm | - | 41 W/m² | - |
| 1777039764 | 21.11° C | 70% | 1020.4 hPa | 0 mm | - | 37 W/m² | - |
| 1777039458 | 20.56° C | 70% | 1020.2 hPa | 0 mm | - | 39 W/m² | - |
| 1777039154 | 20.56° C | 73% | 1020.1 hPa | 0 mm | - | 36 W/m² | - |
| 1777038847 | 20° C | 72% | 1020.1 hPa | 0 mm | - | 35 W/m² | - |
| 1777038544 | 19.44° C | 74% | 1019.8 hPa | 0 mm | - | 34 W/m² | - |
| 1777038243 | 18.89° C | 76% | 1019.9 hPa | 0 mm | - | 32 W/m² | - |
| 1777037939 | 18.89° C | 77% | 1020.1 hPa | 0 mm | - | 32 W/m² | - |
| 1777037635 | 18.89° C | 77% | 1020.1 hPa | 0 mm | - | 30 W/m² | - |
| 1777037332 | 18.33° C | 76% | 1020.1 hPa | 0 mm | - | 30 W/m² | - |
| 1777037029 | 18.33° C | 78% | 1020 hPa | 0 mm | - | 29 W/m² | - |
| 1777036726 | 17.78° C | 78% | 1020.2 hPa | 0 mm | - | 28 W/m² | - |
| 1777036425 | 17.78° C | 79% | 1019.8 hPa | 0 mm | - | 27 W/m² | - |
| 1777036122 | 17.22° C | 80% | 1020 hPa | 0 mm | - | 26 W/m² | - |
| 1777035817 | 16.67° C | 81% | 1019.9 hPa | 0 mm | - | 26 W/m² | - |
| 1777035515 | 16.67° C | 81% | 1020 hPa | 0 mm | - | 25 W/m² | - |
| 1777035213 | 16.11° C | 82% | 1020 hPa | 0 mm | - | 23 W/m² | - |
| 1777034910 | 15.56° C | 83% | 1020 hPa | 0 mm | - | 23 W/m² | - |
| 1777034607 | 15.56° C | 83% | 1019.9 hPa | 0 mm | - | 21 W/m² | - |
| 1777034304 | 15.56° C | 84% | 1019.9 hPa | 0 mm | - | 20 W/m² | - |
| 1777034000 | 15° C | 84% | 1019.9 hPa | 0 mm | - | 19 W/m² | - |
* Rain latest hour (hover to see other rain measurements)
** Current wind speed in m/s (hover to see current wind gust speed)